createdAt,value
2023-01-08T00:02:22.314Z,7.95
2023-01-08T00:04:55.199Z,9.73
2023-01-08T00:07:23.244Z,10.67
2023-01-08T00:09:52.333Z,9.18
2023-01-08T00:12:23.461Z,9.35
2023-01-08T00:14:51.259Z,8.55
2023-01-08T00:17:19.216Z,9.48
2023-01-08T00:19:51.021Z,9.70
2023-01-08T00:22:19.024Z,10.85
2023-01-08T00:24:47.105Z,9.05
2023-01-08T00:27:14.935Z,9.45
2023-01-08T00:29:42.805Z,9.55
2023-01-08T00:32:12.392Z,10.68
2023-01-08T00:34:41.398Z,9.45
2023-01-08T00:37:10.272Z,9.60
2023-01-08T00:39:37.818Z,8.80
2023-01-08T00:42:08.283Z,9.23
2023-01-08T00:44:36.298Z,9.75
2023-01-08T00:47:06.001Z,9.70
2023-01-08T00:49:33.606Z,9.82
2023-01-08T00:52:01.858Z,8.98
2023-01-08T00:54:31.414Z,10.45
2023-01-08T00:57:01.104Z,10.00
2023-01-08T00:59:28.586Z,10.73
2023-01-08T01:01:56.639Z,9.20
2023-01-08T01:04:24.536Z,9.95
2023-01-08T01:06:53.106Z,10.25
2023-01-08T01:09:20.651Z,9.50
2023-01-08T01:11:50.241Z,8.45
2023-01-08T01:14:19.522Z,9.65
2023-01-08T01:16:48.758Z,9.40
2023-01-08T01:19:16.949Z,10.23
2023-01-08T01:21:44.844Z,7.95
2023-01-08T01:24:13.875Z,9.63
2023-01-08T01:26:42.314Z,8.50
2023-01-08T01:29:11.345Z,9.02
2023-01-08T01:31:39.309Z,8.77
2023-01-08T01:34:07.293Z,10.65
2023-01-08T01:36:34.944Z,8.52
2023-01-08T01:39:02.613Z,7.43
2023-01-08T01:41:32.847Z,8.63
2023-01-08T01:44:01.247Z,9.05
2023-01-08T01:46:36.143Z,9.75
2023-01-08T01:49:07.070Z,8.13
2023-01-08T01:51:35.398Z,10.93
2023-01-08T01:54:04.286Z,8.88
2023-01-08T01:56:35.765Z,7.53
2023-01-08T01:59:03.997Z,10.23
2023-01-08T02:01:33.562Z,10.25
2023-01-08T02:04:01.851Z,8.57
2023-01-08T02:06:38.725Z,8.68
2023-01-08T02:09:10.523Z,8.15
2023-01-08T02:11:45.904Z,9.48
2023-01-08T02:14:17.762Z,9.35
2023-01-08T02:16:50.988Z,8.02
2023-01-08T02:19:23.955Z,10.00
2023-01-08T02:21:59.403Z,8.70
2023-01-08T02:24:31.955Z,9.55
2023-01-08T02:27:02.557Z,8.20
2023-01-08T02:29:30.858Z,9.13
2023-01-08T02:31:58.546Z,9.25
2023-01-08T02:34:26.112Z,9.75
2023-01-08T02:36:54.128Z,8.10
2023-01-08T02:39:42.479Z,10.32
2023-01-08T02:42:14.834Z,8.90
2023-01-08T02:44:47.041Z,8.82
2023-01-08T02:47:19.865Z,10.50
2023-01-08T02:49:48.182Z,9.02
2023-01-08T02:52:17.695Z,8.65
2023-01-08T02:54:46.841Z,9.43
2023-01-08T02:57:16.975Z,8.70
2023-01-08T02:59:46.085Z,8.48
2023-01-08T03:02:14.402Z,8.80
2023-01-08T03:04:46.022Z,9.38
2023-01-08T03:07:13.704Z,7.53
2023-01-08T03:09:41.270Z,8.25
2023-01-08T03:12:12.221Z,7.53
2023-01-08T03:14:45.365Z,9.07
2023-01-08T03:17:15.558Z,8.30
2023-01-08T03:19:45.295Z,9.55
2023-01-08T03:22:13.513Z,9.52
2023-01-08T03:24:42.171Z,8.27
2023-01-08T03:27:11.762Z,9.65
2023-01-08T03:29:40.825Z,6.90
2023-01-08T03:32:11.342Z,8.18
2023-01-08T03:34:40.944Z,6.38
2023-01-08T03:37:10.196Z,8.30
2023-01-08T03:39:41.944Z,8.63
2023-01-08T03:42:13.530Z,7.55
2023-01-08T03:44:41.269Z,7.38
2023-01-08T03:47:11.729Z,7.93
2023-01-08T03:49:40.488Z,6.40
2023-01-08T03:52:08.037Z,6.75
2023-01-08T03:54:37.172Z,7.63
2023-01-08T03:57:04.698Z,8.95
2023-01-08T03:59:32.371Z,8.02
2023-01-08T04:02:00.111Z,6.88
2023-01-08T04:04:29.472Z,8.25
2023-01-08T04:06:57.173Z,9.55
2023-01-08T04:09:24.775Z,9.77
2023-01-08T04:11:52.997Z,7.22
2023-01-08T04:14:20.648Z,7.88
2023-01-08T04:16:49.756Z,9.60
2023-01-08T04:19:17.292Z,8.57
2023-01-08T04:21:46.179Z,7.28
2023-01-08T04:24:14.455Z,8.65
2023-01-08T04:26:42.479Z,10.07
2023-01-08T04:29:10.000Z,8.30
2023-01-08T04:31:37.602Z,9.63
2023-01-08T04:34:05.458Z,8.85
2023-01-08T04:36:33.217Z,8.90
2023-01-08T04:39:02.703Z,8.85
2023-01-08T04:41:30.346Z,7.13
2023-01-08T04:43:58.081Z,7.85
2023-01-08T04:46:25.745Z,6.50
2023-01-08T04:48:54.134Z,8.70
2023-01-08T04:51:22.281Z,8.13
2023-01-08T04:53:49.935Z,4.85
2023-01-08T04:56:19.129Z,8.05
2023-01-08T04:58:49.891Z,8.95
2023-01-08T05:01:20.246Z,8.25
2023-01-08T05:03:47.917Z,8.43
2023-01-08T05:06:15.447Z,7.97
2023-01-08T05:08:43.333Z,10.25
2023-01-08T05:11:11.233Z,9.23
2023-01-08T05:13:40.729Z,8.75
2023-01-08T05:16:11.062Z,9.38
2023-01-08T05:18:39.972Z,7.97
2023-01-08T05:21:07.766Z,9.75
2023-01-08T05:23:35.448Z,9.63
2023-01-08T05:26:04.072Z,10.55
2023-01-08T05:28:31.908Z,9.52
2023-01-08T05:31:01.053Z,8.20
2023-01-08T05:33:28.678Z,7.97
2023-01-08T05:35:58.845Z,8.93
2023-01-08T05:38:26.495Z,9.60
2023-01-08T05:40:57.193Z,10.70
2023-01-08T05:43:25.172Z,9.48
2023-01-08T05:45:52.659Z,9.95
2023-01-08T05:48:21.568Z,9.38
2023-01-08T05:50:50.271Z,9.73
2023-01-08T05:53:17.866Z,8.05
2023-01-08T05:55:45.295Z,9.13
2023-01-08T05:58:12.981Z,8.52
2023-01-08T06:00:40.447Z,9.40
2023-01-08T06:03:09.234Z,8.27
2023-01-08T06:05:38.617Z,8.98
2023-01-08T06:08:08.519Z,9.13
2023-01-08T06:10:36.531Z,9.88
2023-01-08T06:13:07.348Z,9.25
2023-01-08T06:15:35.326Z,11.30
2023-01-08T06:18:03.417Z,8.85
2023-01-08T06:20:31.478Z,9.35
2023-01-08T06:23:00.543Z,9.60
2023-01-08T06:25:32.921Z,10.82
2023-01-08T06:28:00.738Z,10.88
2023-01-08T06:30:28.733Z,10.50
2023-01-08T06:33:04.360Z,10.30
2023-01-08T06:35:31.843Z,10.57
2023-01-08T06:38:01.582Z,11.27
2023-01-08T06:40:29.150Z,9.93
2023-01-08T06:43:01.147Z,9.73
2023-01-08T06:45:31.146Z,9.18
2023-01-08T06:48:01.409Z,12.27
2023-01-08T06:50:29.440Z,9.25
2023-01-08T06:52:57.704Z,9.10
2023-01-08T06:55:27.110Z,10.68
2023-01-08T06:57:58.022Z,10.13
2023-01-08T07:00:26.273Z,10.90
2023-01-08T07:02:54.257Z,11.65
2023-01-08T07:05:22.284Z,10.48
2023-01-08T07:07:50.004Z,10.63
2023-01-08T07:10:20.808Z,10.77
2023-01-08T07:12:57.288Z,9.90
2023-01-08T07:15:24.872Z,11.35
2023-01-08T07:17:52.392Z,10.43
2023-01-08T07:20:20.102Z,11.00
2023-01-08T07:22:47.715Z,10.88
2023-01-08T07:25:16.106Z,11.02
2023-01-08T07:27:43.752Z,11.65
2023-01-08T07:30:24.790Z,9.95
2023-01-08T07:32:59.035Z,10.30
2023-01-08T07:35:29.390Z,12.25
2023-01-08T07:37:57.061Z,9.38
2023-01-08T07:40:24.754Z,10.95
2023-01-08T07:42:58.389Z,10.13
2023-01-08T07:45:27.478Z,9.52
2023-01-08T07:50:51.671Z,10.77
2023-01-08T07:53:19.997Z,10.60
2023-01-08T07:55:50.575Z,10.88
2023-01-08T07:58:19.221Z,10.43
2023-01-08T08:00:48.293Z,10.88
2023-01-08T08:03:16.498Z,10.45
2023-01-08T08:05:44.086Z,11.25
2023-01-08T08:08:12.668Z,8.48
2023-01-08T08:10:41.219Z,9.82
2023-01-08T08:13:09.443Z,9.85
2023-01-08T08:15:38.099Z,9.75
2023-01-08T08:18:07.081Z,11.55
2023-01-08T08:20:35.173Z,10.45
2023-01-08T08:23:04.115Z,9.80
2023-01-08T08:25:34.295Z,11.10
2023-01-08T08:28:02.992Z,9.40
2023-01-08T08:30:32.774Z,10.10
2023-01-08T08:33:01.534Z,10.15
2023-01-08T08:35:30.865Z,9.65
2023-01-08T08:37:58.819Z,8.50
2023-01-08T08:40:27.042Z,9.80
2023-01-08T08:42:56.508Z,7.63
2023-01-08T08:45:24.055Z,9.38
2023-01-08T08:47:51.718Z,8.45
2023-01-08T08:50:20.749Z,9.00
2023-01-08T08:52:50.041Z,8.77
2023-01-08T08:55:18.257Z,7.65
2023-01-08T08:57:47.158Z,8.68
2023-01-08T09:00:15.796Z,8.98
2023-01-08T09:02:44.031Z,8.93
2023-01-08T09:05:12.167Z,9.00
2023-01-08T09:07:41.783Z,8.85
2023-01-08T09:10:11.428Z,8.95
2023-01-08T09:12:44.935Z,8.30
2023-01-08T09:15:13.312Z,9.98
2023-01-08T09:17:41.113Z,9.30
2023-01-08T09:20:09.615Z,9.15
2023-01-08T09:22:37.726Z,10.52
2023-01-08T09:25:05.658Z,10.80
2023-01-08T09:27:37.543Z,9.38
2023-01-08T09:30:08.998Z,10.13
2023-01-08T09:32:40.349Z,9.20
2023-01-08T09:35:10.669Z,9.13
2023-01-08T09:37:38.444Z,7.72
2023-01-08T09:40:13.948Z,8.57
2023-01-08T09:42:46.408Z,9.02
2023-01-08T09:45:17.810Z,8.63
2023-01-08T09:47:46.351Z,10.02
2023-01-08T09:50:15.017Z,8.30
2023-01-08T09:52:43.794Z,9.15
2023-01-08T09:55:13.859Z,11.45
2023-01-08T10:00:37.371Z,9.23
2023-01-08T10:03:05.257Z,10.13
2023-01-08T10:05:35.731Z,10.10
2023-01-08T10:08:05.847Z,10.73
2023-01-08T10:10:33.981Z,9.70
2023-01-08T10:13:03.333Z,9.60
2023-01-08T10:15:31.527Z,9.48
2023-01-08T10:18:02.091Z,9.55
2023-01-08T10:20:30.891Z,9.75
2023-01-08T10:23:09.306Z,10.30
2023-01-08T10:25:47.962Z,9.98
2023-01-08T10:28:19.832Z,9.98
2023-01-08T10:30:47.789Z,11.60
2023-01-08T10:33:19.404Z,11.27
2023-01-08T10:35:52.745Z,11.35
2023-01-08T10:38:25.742Z,10.38
2023-01-08T10:40:53.528Z,10.65
2023-01-08T10:43:23.823Z,12.68
2023-01-08T10:46:00.977Z,10.90
2023-01-08T10:48:32.125Z,11.25
2023-01-08T10:51:07.079Z,12.90
2023-01-08T10:53:39.253Z,12.70
2023-01-08T10:56:07.085Z,12.35
2023-01-08T10:58:43.167Z,12.00
2023-01-08T11:01:12.016Z,10.82
2023-01-08T11:03:40.852Z,11.75
2023-01-08T11:06:12.728Z,12.85
2023-01-08T11:08:41.009Z,12.18
2023-01-08T11:11:09.358Z,11.95
2023-01-08T11:13:37.096Z,11.57
2023-01-08T11:16:12.088Z,12.63
2023-01-08T11:18:48.250Z,14.27
2023-01-08T11:21:21.094Z,13.48
2023-01-08T11:23:49.212Z,13.02
2023-01-08T11:26:18.233Z,11.80
2023-01-08T11:28:50.537Z,14.70
2023-01-08T11:31:23.233Z,13.50
2023-01-08T11:33:54.884Z,14.70
2023-01-08T11:36:30.004Z,13.88
2023-01-08T11:38:57.552Z,14.98
2023-01-08T11:41:36.914Z,14.55
2023-01-08T11:44:13.012Z,15.30
2023-01-08T11:46:45.863Z,14.90
2023-01-08T11:49:22.642Z,14.65
2023-01-08T11:51:57.533Z,14.23
2023-01-08T11:54:34.540Z,15.07
2023-01-08T11:57:15.130Z,13.93
2023-01-08T11:59:50.760Z,14.15
2023-01-08T12:02:26.013Z,14.77
2023-01-08T12:05:04.100Z,13.43
2023-01-08T12:07:34.305Z,13.80
2023-01-08T12:10:06.449Z,12.88
2023-01-08T12:12:42.443Z,13.02
2023-01-08T12:15:17.846Z,14.75
2023-01-08T12:18:05.831Z,12.88
2023-01-08T12:20:58.463Z,11.75
2023-01-08T12:23:33.646Z,12.70
2023-01-08T12:26:07.631Z,12.25
2023-01-08T12:28:49.806Z,12.55
2023-01-08T12:31:28.521Z,11.73
2023-01-08T12:34:00.328Z,12.18
2023-01-08T12:36:31.393Z,12.32
2023-01-08T12:39:01.753Z,13.23
2023-01-08T12:41:32.410Z,13.32
2023-01-08T12:44:02.058Z,13.57
2023-01-08T12:46:32.356Z,10.43
2023-01-08T12:49:05.570Z,10.45
2023-01-08T12:51:39.953Z,10.43
2023-01-08T12:54:11.673Z,8.77
2023-01-08T12:56:44.643Z,9.43
2023-01-08T12:59:29.912Z,8.53
2023-01-08T13:02:02.615Z,9.07
2023-01-08T13:04:39.754Z,9.02
2023-01-08T13:07:07.434Z,9.07
2023-01-08T13:09:35.294Z,8.40
2023-01-08T13:12:03.024Z,8.45
2023-01-08T13:14:41.681Z,9.38
2023-01-08T13:17:17.131Z,9.38
2023-01-08T13:19:50.526Z,9.10
2023-01-08T13:22:24.706Z,8.10
2023-01-08T13:24:52.648Z,8.13
2023-01-08T13:27:29.072Z,7.60
2023-01-08T13:29:58.699Z,8.23
2023-01-08T13:32:27.391Z,7.60
2023-01-08T13:35:05.112Z,7.88
2023-01-08T13:37:33.918Z,8.18
2023-01-08T13:40:01.878Z,8.43
2023-01-08T13:42:31.550Z,6.97
2023-01-08T13:45:05.007Z,7.78
2023-01-08T13:47:49.030Z,6.70
2023-01-08T13:50:20.729Z,8.20
2023-01-08T13:52:51.066Z,6.53
2023-01-08T13:55:19.922Z,6.82
2023-01-08T13:57:49.449Z,7.70
2023-01-08T14:00:27.940Z,7.80
2023-01-08T14:02:57.294Z,6.88
2023-01-08T14:05:31.884Z,7.63
2023-01-08T14:08:08.881Z,8.75
2023-01-08T14:10:40.727Z,6.82
2023-01-08T14:13:10.132Z,6.53
2023-01-08T14:15:40.077Z,8.07
2023-01-08T14:18:07.653Z,7.78
2023-01-08T14:20:38.124Z,7.45
2023-01-08T14:23:11.512Z,7.60
2023-01-08T14:25:39.714Z,6.75
2023-01-08T14:28:07.536Z,6.65
2023-01-08T14:30:35.737Z,6.18
2023-01-08T14:33:03.595Z,6.18
2023-01-08T14:35:33.715Z,6.63
2023-01-08T14:38:05.653Z,6.43
2023-01-08T14:40:35.322Z,6.20
2023-01-08T14:43:05.032Z,6.45
2023-01-08T14:45:34.690Z,7.13
2023-01-08T14:48:09.159Z,6.75
2023-01-08T14:50:38.199Z,6.35
2023-01-08T14:53:10.166Z,7.43
2023-01-08T14:55:42.761Z,6.72
2023-01-08T14:58:14.061Z,6.13
2023-01-08T15:01:12.497Z,8.50
2023-01-08T15:04:05.481Z,8.07
2023-01-08T15:12:31.387Z,8.00
2023-01-08T15:15:12.247Z,8.20
2023-01-08T15:17:45.772Z,7.95
2023-01-08T15:20:51.061Z,7.75
2023-01-08T15:24:02.692Z,8.20
2023-01-08T15:26:32.617Z,6.78
2023-01-08T15:29:07.885Z,7.93
2023-01-08T15:31:51.498Z,8.68
2023-01-08T15:34:43.579Z,7.25
2023-01-08T15:37:19.813Z,6.03
2023-01-08T15:40:19.889Z,8.38
2023-01-08T15:43:20.252Z,7.70
2023-01-08T15:49:16.126Z,7.40
2023-01-08T15:51:48.539Z,8.82
2023-01-08T15:54:35.449Z,8.02
2023-01-08T15:57:25.462Z,7.75
2023-01-08T16:00:08.337Z,7.82
2023-01-08T16:02:43.718Z,8.07
2023-01-08T16:05:19.102Z,8.82
2023-01-08T16:07:47.530Z,8.90
2023-01-08T16:10:16.820Z,6.78
2023-01-08T16:13:01.375Z,8.18
2023-01-08T16:15:34.768Z,8.88
2023-01-08T16:18:02.951Z,7.55
2023-01-08T16:20:36.003Z,5.15
2023-01-08T16:23:04.273Z,7.93
2023-01-08T16:25:35.233Z,8.68
2023-01-08T16:28:03.461Z,8.48
2023-01-08T16:30:39.981Z,7.60
2023-01-08T16:33:08.138Z,8.40
2023-01-08T16:35:39.798Z,7.53
2023-01-08T16:38:11.453Z,7.93
2023-01-08T16:40:44.779Z,7.28
2023-01-08T16:43:25.899Z,6.30
2023-01-08T16:45:56.161Z,6.50
2023-01-08T16:48:25.582Z,7.32
2023-01-08T16:50:53.894Z,6.82
2023-01-08T16:53:23.327Z,7.60
2023-01-08T16:55:59.459Z,7.78
2023-01-08T16:58:31.627Z,7.32
2023-01-08T17:01:01.724Z,8.00
2023-01-08T17:03:31.288Z,8.65
2023-01-08T17:06:02.189Z,8.07
2023-01-08T17:08:33.525Z,8.15
2023-01-08T17:11:01.706Z,8.43
2023-01-08T17:13:30.560Z,7.80
2023-01-08T17:16:00.136Z,8.13
2023-01-08T17:18:33.223Z,7.18
2023-01-08T17:21:01.297Z,8.43
2023-01-08T17:23:29.481Z,7.60
2023-01-08T17:26:08.047Z,9.10
2023-01-08T17:28:36.324Z,7.68
2023-01-08T17:31:08.520Z,6.70
2023-01-08T17:33:39.523Z,8.60
2023-01-08T17:36:15.424Z,7.45
2023-01-08T17:39:01.213Z,7.90
2023-01-08T17:41:58.121Z,8.27
2023-01-08T17:44:26.579Z,8.60
2023-01-08T17:46:57.581Z,8.57
2023-01-08T17:49:27.040Z,8.35
2023-01-08T17:51:58.264Z,9.10
2023-01-08T17:54:26.321Z,7.85
2023-01-08T17:56:57.462Z,9.35
2023-01-08T17:59:27.160Z,5.95
2023-01-08T18:01:59.107Z,8.07
2023-01-08T18:04:29.441Z,8.63
2023-01-08T18:06:57.560Z,7.15
2023-01-08T18:09:25.588Z,7.90
2023-01-08T18:11:53.728Z,6.63
2023-01-08T18:14:22.078Z,7.22
2023-01-08T18:16:55.303Z,7.13
2023-01-08T18:19:26.334Z,6.35
2023-01-08T18:21:55.526Z,7.80
2023-01-08T18:24:23.258Z,8.50
2023-01-08T18:26:51.410Z,8.35
2023-01-08T18:29:21.842Z,10.20
2023-01-08T18:31:49.679Z,2.50
2023-01-08T18:34:17.461Z,8.00
2023-01-08T18:36:45.144Z,8.65
2023-01-08T18:39:14.285Z,5.78
2023-01-08T18:41:58.573Z,6.22
2023-01-08T18:44:26.329Z,6.40
2023-01-08T18:47:00.582Z,6.32
2023-01-08T18:49:32.576Z,7.40
2023-01-08T18:52:00.706Z,7.40
2023-01-08T18:54:38.036Z,5.63
2023-01-08T18:57:06.031Z,7.22
2023-01-08T18:59:36.908Z,6.65
2023-01-08T19:02:05.244Z,6.95
2023-01-08T19:04:34.617Z,8.00
2023-01-08T19:07:02.400Z,8.00
2023-01-08T19:09:31.547Z,8.52
2023-01-08T19:12:03.540Z,8.45
2023-01-08T19:14:31.100Z,7.88
2023-01-08T19:16:59.916Z,7.85
2023-01-08T19:19:28.568Z,7.85
2023-01-08T19:22:12.467Z,5.45
2023-01-08T19:24:42.847Z,7.22
2023-01-08T19:27:20.911Z,7.10
2023-01-08T19:29:50.943Z,4.55
2023-01-08T19:32:20.507Z,6.28
2023-01-08T19:35:00.741Z,5.75
2023-01-08T19:37:29.771Z,7.95
2023-01-08T19:40:01.488Z,6.28
2023-01-08T19:42:57.716Z,3.95
2023-01-08T19:45:28.147Z,6.30
2023-01-08T19:48:19.868Z,8.15
2023-01-08T19:51:42.675Z,7.57
2023-01-08T19:57:42.255Z,8.05
2023-01-08T20:03:07.837Z,8.27
2023-01-08T20:05:36.807Z,6.85
2023-01-08T20:08:04.563Z,7.60
2023-01-08T20:10:32.350Z,6.97
2023-01-08T20:13:01.782Z,7.90
2023-01-08T20:15:31.807Z,6.68
2023-01-08T20:17:59.407Z,8.10
2023-01-08T20:20:27.148Z,7.43
2023-01-08T20:22:55.559Z,6.40
2023-01-08T20:25:23.375Z,6.88
2023-01-08T20:27:54.858Z,6.43
2023-01-08T20:30:23.771Z,7.13
2023-01-08T20:32:51.330Z,7.40
2023-01-08T20:35:18.887Z,8.00
2023-01-08T20:37:46.934Z,6.13
2023-01-08T20:40:16.189Z,7.30
2023-01-08T20:42:48.929Z,5.18
2023-01-08T20:45:16.613Z,7.03
2023-01-08T20:47:45.602Z,7.18
2023-01-08T20:50:20.102Z,9.52
2023-01-08T20:52:48.068Z,7.85
2023-01-08T20:55:18.577Z,6.38
2023-01-08T20:57:46.287Z,5.93
2023-01-08T21:00:14.290Z,7.57
2023-01-08T21:02:41.953Z,6.13
2023-01-08T21:05:11.098Z,7.28
2023-01-08T21:07:38.821Z,5.90
2023-01-08T21:10:06.874Z,7.63
2023-01-08T21:12:35.860Z,6.20
2023-01-08T21:15:03.604Z,7.93
2023-01-08T21:17:31.291Z,7.38
2023-01-08T21:19:59.195Z,7.53
2023-01-08T21:22:28.035Z,8.40
2023-01-08T21:24:55.599Z,7.65
2023-01-08T21:27:23.277Z,6.20
2023-01-08T21:29:52.334Z,7.18
2023-01-08T21:32:19.807Z,6.97
2023-01-08T21:34:48.631Z,7.72
2023-01-08T21:37:16.269Z,5.40
2023-01-08T21:39:45.200Z,7.25
2023-01-08T21:42:30.608Z,9.88
2023-01-08T21:45:19.248Z,7.43
2023-01-08T21:47:49.679Z,8.30
2023-01-08T21:50:17.594Z,7.47
2023-01-08T21:53:02.769Z,6.95
2023-01-08T21:55:33.625Z,7.45
2023-01-08T21:58:01.157Z,8.05
2023-01-08T22:00:28.759Z,7.75
2023-01-08T22:02:56.690Z,8.05
2023-01-08T22:05:24.352Z,7.97
2023-01-08T22:07:52.725Z,9.02
2023-01-08T22:10:20.553Z,7.63
2023-01-08T22:12:49.517Z,7.68
2023-01-08T22:15:17.115Z,8.50
2023-01-08T22:17:44.693Z,7.50
2023-01-08T22:20:12.777Z,7.70
2023-01-08T22:22:41.306Z,10.38
2023-01-08T22:25:09.778Z,7.13
2023-01-08T22:27:37.335Z,8.05
2023-01-08T22:30:08.519Z,9.52
2023-01-08T22:32:36.249Z,8.20
2023-01-08T22:35:04.731Z,9.10
2023-01-08T22:37:32.459Z,7.07
2023-01-08T22:40:00.736Z,7.95
2023-01-08T22:42:28.200Z,7.10
2023-01-08T22:44:55.805Z,7.68
2023-01-08T22:47:24.613Z,8.02
2023-01-08T22:49:53.023Z,8.70
2023-01-08T22:52:20.610Z,7.75
2023-01-08T22:54:48.186Z,7.13
2023-01-08T22:57:15.874Z,7.50
2023-01-08T22:59:43.374Z,9.35
2023-01-08T23:02:11.444Z,4.80
2023-01-08T23:04:40.762Z,7.07
2023-01-08T23:07:08.399Z,7.20
2023-01-08T23:09:35.968Z,8.32
2023-01-08T23:12:06.295Z,8.65
2023-01-08T23:14:34.152Z,8.82
2023-01-08T23:17:01.728Z,6.22
2023-01-08T23:19:29.587Z,6.03
2023-01-08T23:21:58.512Z,8.00
2023-01-08T23:24:27.858Z,8.85
2023-01-08T23:26:57.759Z,9.20
2023-01-08T23:29:29.748Z,7.30
2023-01-08T23:31:57.762Z,8.60
2023-01-08T23:34:26.395Z,7.63
2023-01-08T23:36:54.196Z,9.20
2023-01-08T23:39:26.614Z,8.55
2023-01-08T23:41:54.318Z,8.63
2023-01-08T23:44:21.841Z,8.85
2023-01-08T23:46:49.346Z,8.77
2023-01-08T23:49:17.034Z,10.07
2023-01-08T23:51:44.532Z,9.63
2023-01-08T23:54:12.695Z,8.68
2023-01-08T23:56:41.731Z,8.35
2023-01-08T23:59:09.959Z,7.90
